Time;durP1;ratioP1;P1;durP2;ratioP2;P2;SDS_P1;SDS_P2;PMS_P1;PMS_P2;Temp;Humidity;BMP_temperature;BMP_pressure;BME280_temperature;BME280_humidity;BME280_pressure;Samples;Min_cycle;Max_cycle;Signal;HPM_P1;HPM_P2
2021/09/22 00:00:27;;;;;;;10.07;8.50;;;14.90;68.00;;;;;;4955848;28;20842;-89
2021/09/22 00:02:53;;;;;;;13.87;7.80;;;15.00;68.00;;;;;;4955668;29;20197;-89
2021/09/22 00:05:18;;;;;;;12.57;8.23;;;15.00;67.90;;;;;;4954388;28;20412;-89
2021/09/22 00:07:45;;;;;;;11.47;8.67;;;15.00;67.90;;;;;;4954359;29;20424;-89
2021/09/22 00:10:15;;;;;;;12.90;8.07;;;15.00;68.00;;;;;;4955525;29;20184;-89
2021/09/22 00:12:41;;;;;;;7.97;7.18;;;15.10;67.90;;;;;;4954619;29;20570;-89
2021/09/22 00:15:08;;;;;;;13.27;8.52;;;14.90;67.80;;;;;;4955665;29;20527;-89
2021/09/22 00:17:34;;;;;;;10.60;9.40;;;14.80;68.50;;;;;;4955559;28;20195;-89
2021/09/22 00:20:01;;;;;;;11.85;7.82;;;14.80;68.70;;;;;;4955424;29;20184;-89
2021/09/22 00:22:27;;;;;;;13.18;8.57;;;14.90;68.50;;;;;;4956067;29;20192;-89
2021/09/22 00:25:06;;;;;;;13.90;8.50;;;14.90;68.30;;;;;;4954450;29;20318;-89
2021/09/22 00:27:31;;;;;;;15.25;8.10;;;14.90;68.30;;;;;;4954761;29;20428;-89
2021/09/22 00:29:58;;;;;;;17.30;10.75;;;14.90;68.30;;;;;;4954613;29;20208;-88
2021/09/22 00:32:25;;;;;;;13.32;9.10;;;15.00;68.40;;;;;;4954740;28;20246;-88
2021/09/22 00:35:12;;;;;;;14.60;9.40;;;14.90;68.20;;;;;;4956962;29;20187;-88
2021/09/22 00:37:37;;;;;;;13.35;8.27;;;14.90;68.20;;;;;;4973830;28;20208;-89
2021/09/22 00:40:04;;;;;;;11.23;7.63;;;14.90;68.20;;;;;;4974706;28;20211;-89
2021/09/22 00:42:30;;;;;;;14.13;9.52;;;14.80;68.20;;;;;;4973652;28;20279;-89
2021/09/22 00:44:59;;;;;;;13.17;9.13;;;14.80;68.40;;;;;;4975113;28;20198;-89
2021/09/22 00:47:26;;;;;;;10.00;7.80;;;14.80;68.40;;;;;;4978550;28;20187;-89
2021/09/22 00:49:52;;;;;;;13.05;9.20;;;14.70;68.40;;;;;;4977001;28;20714;-89
2021/09/22 00:52:19;;;;;;;12.95;8.60;;;14.50;68.70;;;;;;4961358;28;20188;-88
2021/09/22 00:54:46;;;;;;;11.63;8.90;;;14.60;69.00;;;;;;4978467;28;20274;-88
2021/09/22 00:57:13;;;;;;;12.88;9.10;;;14.90;68.70;;;;;;4977101;28;20644;-88
2021/09/22 00:59:39;;;;;;;10.10;8.20;;;14.90;68.60;;;;;;4978299;28;20195;-88
2021/09/22 01:02:06;;;;;;;17.23;9.35;;;14.70;68.50;;;;;;4976218;28;20203;-88
2021/09/22 01:04:32;;;;;;;11.65;8.70;;;14.60;69.00;;;;;;4976877;28;20639;-88
2021/09/22 01:06:59;;;;;;;12.63;8.82;;;14.60;69.10;;;;;;4979305;28;20231;-88
2021/09/22 01:09:26;;;;;;;15.38;8.93;;;14.70;69.00;;;;;;4977977;28;20370;-87
2021/09/22 01:11:52;;;;;;;9.82;8.20;;;14.70;68.90;;;;;;4977643;28;20662;-87
2021/09/22 01:14:22;;;;;;;9.73;7.80;;;14.50;69.20;;;;;;4977283;28;20215;-87
2021/09/22 01:16:48;;;;;;;12.63;7.78;;;14.50;69.60;;;;;;4977031;28;20419;-88
2021/09/22 01:19:14;;;;;;;10.52;8.40;;;14.60;69.40;;;;;;4977654;28;20324;-88
2021/09/22 01:21:49;;;;;;;14.23;8.57;;;14.60;69.20;;;;;;4975881;28;20676;-88
2021/09/22 01:24:19;;;;;;;12.95;8.90;;;14.40;69.50;;;;;;4976387;28;20739;-88
2021/09/22 01:26:45;;;;;;;10.40;7.90;;;14.50;69.80;;;;;;4977317;28;20330;-89
2021/09/22 01:29:11;;;;;;;11.30;8.50;;;14.60;69.60;;;;;;4976070;28;20271;-89
2021/09/22 01:31:39;;;;;;;14.60;9.33;;;14.50;69.50;;;;;;4977254;28;20903;-89
2021/09/22 01:34:07;;;;;;;15.05;9.57;;;14.50;69.40;;;;;;4976082;28;20585;-89
2021/09/22 01:36:33;;;;;;;11.63;8.07;;;14.40;69.20;;;;;;4976287;28;20674;-89
2021/09/22 01:39:00;;;;;;;11.18;7.80;;;14.30;69.60;;;;;;4977872;28;20188;-89
2021/09/22 01:41:26;;;;;;;12.20;8.05;;;14.30;69.80;;;;;;4976837;28;20195;-87
2021/09/22 01:43:53;;;;;;;11.73;8.23;;;14.50;69.90;;;;;;4976565;28;20200;-90
2021/09/22 01:46:19;;;;;;;14.20;8.93;;;14.40;69.70;;;;;;4979073;28;20408;-90
2021/09/22 01:48:45;;;;;;;12.20;7.80;;;14.30;69.90;;;;;;4976007;28;20190;-89
2021/09/22 01:51:12;;;;;;;11.63;8.00;;;14.20;70.20;;;;;;4979420;28;20184;-90
2021/09/22 01:53:38;;;;;;;12.30;8.30;;;14.20;70.40;;;;;;4976301;28;20813;-90
2021/09/22 01:56:27;;;;;;;12.05;8.55;;;14.30;70.30;;;;;;4976295;28;20311;-90
2021/09/22 01:58:52;;;;;;;10.40;8.32;;;14.30;70.10;;;;;;4979723;28;20247;-90
2021/09/22 02:01:18;;;;;;;11.60;8.60;;;14.20;70.20;;;;;;4975117;28;20738;-88
2021/09/22 02:03:45;;;;;;;12.67;9.00;;;14.30;70.10;;;;;;4976356;28;20271;-88
2021/09/22 02:06:12;;;;;;;9.65;8.27;;;14.40;69.90;;;;;;4961766;28;20210;-89
2021/09/22 02:08:39;;;;;;;12.88;7.93;;;14.40;69.80;;;;;;4975604;28;20183;-89
2021/09/22 02:11:05;;;;;;;15.82;8.68;;;14.20;69.90;;;;;;4983965;28;20191;-89
2021/09/22 02:13:31;;;;;;;20.42;7.93;;;14.20;70.20;;;;;;4977679;28;20569;-89
2021/09/22 02:15:57;;;;;;;11.67;8.17;;;14.30;70.20;;;;;;4975623;28;20282;-90
2021/09/22 02:18:22;;;;;;;15.33;8.13;;;14.40;70.00;;;;;;4978743;28;20424;-90
2021/09/22 02:20:48;;;;;;;11.33;8.23;;;14.40;69.60;;;;;;4975337;28;20204;-90
2021/09/22 02:23:14;;;;;;;9.60;8.10;;;14.40;69.50;;;;;;4975156;28;20196;-89
2021/09/22 02:25:39;;;;;;;9.20;7.40;;;14.30;69.60;;;;;;4979050;28;20295;-88
2021/09/22 02:28:05;;;;;;;12.10;8.30;;;14.20;69.60;;;;;;4975276;28;20184;-89
2021/09/22 02:30:31;;;;;;;11.77;8.50;;;14.30;69.70;;;;;;4976573;28;20519;-88
2021/09/22 02:32:57;;;;;;;10.20;8.37;;;14.30;69.60;;;;;;4976119;28;20620;-88
2021/09/22 02:35:22;;;;;;;10.57;6.77;;;14.20;69.50;;;;;;4974876;28;20184;-88
2021/09/22 02:37:48;;;;;;;10.10;6.33;;;14.20;69.50;;;;;;4976888;28;20278;-88
2021/09/22 02:40:16;;;;;;;10.83;8.77;;;14.30;69.50;;;;;;4975230;28;20180;-88
2021/09/22 02:42:43;;;;;;;11.35;7.45;;;14.30;69.20;;;;;;4975773;28;20566;-88
2021/09/22 02:45:10;;;;;;;11.63;7.53;;;14.20;69.10;;;;;;4976526;28;20655;-88
2021/09/22 02:47:35;;;;;;;12.75;8.60;;;14.10;69.10;;;;;;4974975;28;20231;-88
2021/09/22 02:50:02;;;;;;;10.10;8.23;;;14.10;69.40;;;;;;4976158;28;20251;-88
2021/09/22 02:52:28;;;;;;;10.93;8.30;;;13.90;69.50;;;;;;4974015;28;20446;-88
2021/09/22 02:54:53;;;;;;;14.80;8.10;;;13.70;70.00;;;;;;4974532;28;20188;-88
2021/09/22 02:57:19;;;;;;;12.60;8.50;;;13.60;70.70;;;;;;4976298;28;20218;-89
2021/09/22 02:59:45;;;;;;;9.70;7.97;;;13.50;71.10;;;;;;4974248;28;20211;-89
2021/09/22 03:02:10;;;;;;;9.67;8.27;;;13.70;71.00;;;;;;4974343;28;20227;-89
2021/09/22 03:04:36;;;;;;;10.67;8.03;;;13.80;70.70;;;;;;4977215;28;20176;-89
2021/09/22 03:07:02;;;;;;;12.73;8.00;;;13.80;70.60;;;;;;4974446;28;20262;-88
2021/09/22 03:09:28;;;;;;;9.30;7.73;;;13.80;70.50;;;;;;4973416;28;20180;-89
2021/09/22 03:11:54;;;;;;;9.20;7.73;;;13.80;70.50;;;;;;4973919;28;20470;-90
2021/09/22 03:14:19;;;;;;;12.30;7.47;;;13.80;70.40;;;;;;4974167;28;20230;-90
2021/09/22 03:16:45;;;;;;;11.80;8.20;;;13.70;70.20;;;;;;4975769;28;20423;-90
2021/09/22 03:19:11;;;;;;;11.37;7.57;;;13.50;70.40;;;;;;4974485;28;20499;-90
2021/09/22 03:21:37;;;;;;;13.00;8.50;;;13.60;70.70;;;;;;4974282;28;20343;-90
2021/09/22 03:24:03;;;;;;;11.07;7.40;;;13.60;70.50;;;;;;4984680;28;20196;-90
2021/09/22 03:26:28;;;;;;;10.50;7.70;;;13.70;70.50;;;;;;4985143;28;20419;-90
2021/09/22 03:28:54;;;;;;;19.87;9.27;;;13.70;70.30;;;;;;4985273;28;20230;-90
2021/09/22 03:31:20;;;;;;;10.90;8.67;;;13.80;70.20;;;;;;4984067;28;20176;-90
2021/09/22 03:33:45;;;;;;;9.33;7.80;;;13.80;69.80;;;;;;4985290;28;20267;-90
2021/09/22 03:36:11;;;;;;;11.13;8.00;;;13.70;69.80;;;;;;4982499;28;20258;-90
2021/09/22 03:38:37;;;;;;;10.37;8.17;;;13.80;69.90;;;;;;4980798;28;20668;-90
2021/09/22 03:41:04;;;;;;;11.70;9.23;;;13.70;70.00;;;;;;4981049;28;20462;-90
2021/09/22 03:43:30;;;;;;;12.82;8.65;;;13.80;70.10;;;;;;4981550;28;20196;-89
2021/09/22 03:45:55;;;;;;;10.75;8.02;;;13.80;70.10;;;;;;4980645;28;20227;-88
2021/09/22 03:48:21;;;;;;;13.47;9.03;;;13.70;70.20;;;;;;4978607;28;20542;-88
2021/09/22 03:50:48;;;;;;;12.60;8.23;;;13.70;70.30;;;;;;4973850;28;20182;-88
2021/09/22 03:53:16;;;;;;;12.48;8.75;;;13.60;70.20;;;;;;4973453;28;20439;-88
2021/09/22 03:55:45;;;;;;;12.30;8.45;;;13.50;70.40;;;;;;4975515;28;20184;-89
2021/09/22 03:58:12;;;;;;;9.40;8.18;;;13.40;70.60;;;;;;4978755;28;20175;-88
2021/09/22 04:00:38;;;;;;;13.73;7.95;;;13.50;70.60;;;;;;4976247;28;20639;-88
2021/09/22 04:03:03;;;;;;;11.47;8.00;;;13.50;70.60;;;;;;4975382;28;20230;-88
2021/09/22 04:05:29;;;;;;;10.83;7.93;;;13.40;70.60;;;;;;4974029;28;20517;-89
2021/09/22 04:07:55;;;;;;;10.77;7.63;;;13.20;70.80;;;;;;4974473;28;20425;-89
2021/09/22 04:10:20;;;;;;;21.10;9.17;;;13.20;71.40;;;;;;4973627;28;20640;-89
2021/09/22 04:12:46;;;;;;;12.37;8.10;;;13.30;71.50;;;;;;4973491;28;20238;-89
2021/09/22 04:18:29;;;;;;;9.43;8.32;;;13.40;70.70;;;;;;4975421;28;20486;-89
2021/09/22 04:20:55;;;;;;;12.70;8.63;;;13.50;70.60;;;;;;4976838;28;20571;-89
2021/09/22 04:23:20;;;;;;;13.10;8.43;;;13.50;70.70;;;;;;4977957;28;20196;-88
2021/09/22 04:25:46;;;;;;;10.20;8.10;;;13.40;70.70;;;;;;4978515;28;20419;-89
2021/09/22 04:28:12;;;;;;;12.80;8.10;;;13.50;70.80;;;;;;4979193;28;20985;-88
2021/09/22 04:30:38;;;;;;;10.80;7.23;;;13.50;70.70;;;;;;4978499;28;20514;-89
2021/09/22 04:33:04;;;;;;;16.67;9.70;;;13.50;70.60;;;;;;4977769;28;20475;-89
2021/09/22 04:35:33;;;;;;;13.43;9.53;;;13.50;70.50;;;;;;4977179;28;20274;-89
2021/09/22 04:38:00;;;;;;;17.60;9.30;;;13.40;70.50;;;;;;4977212;28;20503;-89
2021/09/22 04:40:29;;;;;;;12.60;9.25;;;13.40;70.50;;;;;;4977354;28;20207;-89
2021/09/22 04:42:56;;;;;;;17.27;8.63;;;13.50;70.50;;;;;;4976606;28;20195;-89
2021/09/22 04:45:22;;;;;;;12.15;8.40;;;13.40;70.40;;;;;;4977369;28;20658;-89
2021/09/22 04:47:49;;;;;;;16.67;8.70;;;13.40;70.30;;;;;;4977819;28;20172;-89
2021/09/22 04:50:15;;;;;;;14.55;9.57;;;13.40;70.40;;;;;;4978641;28;20191;-90
2021/09/22 04:52:41;;;;;;;12.68;9.23;;;13.40;70.40;;;;;;4977295;28;20245;-89
2021/09/22 04:55:49;;;;;;;11.97;8.87;;;13.40;70.50;;;;;;4977013;28;20288;-88
2021/09/22 04:58:15;;;;;;;14.48;9.48;;;13.40;70.50;;;;;;4977637;28;20965;-88
2021/09/22 05:00:41;;;;;;;15.10;8.57;;;13.50;70.60;;;;;;4978336;28;20235;-88
2021/09/22 05:03:06;;;;;;;14.05;9.43;;;13.50;70.70;;;;;;4977677;28;20459;-89
2021/09/22 05:05:33;;;;;;;14.17;10.03;;;13.40;70.90;;;;;;4977878;28;20180;-89
2021/09/22 05:08:00;;;;;;;19.55;9.82;;;13.50;70.80;;;;;;4977025;28;20172;-89
2021/09/22 05:10:27;;;;;;;17.67;8.10;;;13.50;70.70;;;;;;4976566;28;20196;-89
2021/09/22 05:12:54;;;;;;;12.38;9.55;;;13.40;70.60;;;;;;4977280;28;20207;-89
2021/09/22 05:15:20;;;;;;;16.60;10.15;;;13.40;70.60;;;;;;4971928;28;20189;-89
2021/09/22 05:17:45;;;;;;;14.93;10.97;;;13.40;70.70;;;;;;4956265;29;20191;-89
2021/09/22 05:20:12;;;;;;;16.33;10.60;;;13.40;70.70;;;;;;4958077;28;20421;-89
2021/09/22 05:22:38;;;;;;;19.30;11.02;;;13.40;70.80;;;;;;4956906;28;20200;-90
2021/09/22 05:25:05;;;;;;;13.73;9.65;;;13.50;70.90;;;;;;4957931;29;20185;-90
2021/09/22 05:27:31;;;;;;;16.52;11.10;;;13.40;70.70;;;;;;4957317;28;20177;-89
2021/09/22 05:29:57;;;;;;;18.70;10.83;;;13.30;71.10;;;;;;4957063;29;20290;-90
2021/09/22 05:32:23;;;;;;;16.13;10.60;;;13.30;71.20;;;;;;4957377;28;20266;-89
2021/09/22 05:34:48;;;;;;;20.27;10.97;;;13.30;71.20;;;;;;4957560;29;20420;-91
2021/09/22 05:37:14;;;;;;;18.40;10.00;;;13.30;71.00;;;;;;4975366;28;20569;-91
2021/09/22 05:39:40;;;;;;;16.40;10.65;;;13.30;71.10;;;;;;4977714;28;20607;-90
2021/09/22 05:42:07;;;;;;;18.53;11.07;;;13.20;71.00;;;;;;4975511;28;20278;-90
2021/09/22 05:44:33;;;;;;;21.67;12.52;;;13.30;71.20;;;;;;4976260;28;20927;-90
2021/09/22 05:46:59;;;;;;;25.52;12.95;;;13.20;71.20;;;;;;4978924;28;20192;-90
2021/09/22 05:49:24;;;;;;;20.50;11.83;;;13.30;71.10;;;;;;4976265;28;20182;-90
2021/09/22 05:51:50;;;;;;;20.80;10.20;;;13.20;71.00;;;;;;4976798;28;20279;-89
2021/09/22 05:54:16;;;;;;;16.47;11.57;;;13.30;71.10;;;;;;4975926;28;20683;-90
2021/09/22 05:56:42;;;;;;;22.02;11.60;;;13.40;70.80;;;;;;4962853;28;20181;-90
2021/09/22 05:59:08;;;;;;;24.23;12.45;;;13.60;70.40;;;;;;4958856;28;20242;-92
2021/09/22 06:01:34;;;;;;;19.00;12.60;;;13.70;69.70;;;;;;4955542;28;20208;-92
2021/09/22 06:04:00;;;;;;;22.43;12.13;;;13.60;69.50;;;;;;4957428;28;20594;-91
2021/09/22 06:06:27;;;;;;;15.87;11.10;;;13.70;69.60;;;;;;4960241;28;20416;-91
2021/09/22 06:08:53;;;;;;;18.48;13.02;;;13.80;69.40;;;;;;4957877;29;20195;-92
2021/09/22 06:11:19;;;;;;;20.87;12.57;;;13.90;69.10;;;;;;4960730;28;20188;-91
2021/09/22 06:13:46;;;;;;;18.73;13.63;;;13.90;68.90;;;;;;4956813;28;20259;-91
2021/09/22 06:16:12;;;;;;;25.15;14.27;;;13.90;68.80;;;;;;4957024;29;20184;-91
2021/09/22 06:18:38;;;;;;;21.08;12.80;;;13.90;68.70;;;;;;4961174;29;20564;-91
2021/09/22 06:21:05;;;;;;;17.85;11.95;;;13.90;68.60;;;;;;4956964;29;20208;-91
2021/09/22 06:23:31;;;;;;;25.67;12.70;;;14.10;68.50;;;;;;4956369;28;20730;-92
2021/09/22 06:25:57;;;;;;;17.05;13.18;;;14.20;68.00;;;;;;4958388;29;20188;-92
2021/09/22 06:28:23;;;;;;;25.90;13.37;;;14.20;67.90;;;;;;4956730;29;20204;-91
2021/09/22 06:30:48;;;;;;;23.47;13.00;;;14.20;68.00;;;;;;4959584;29;20420;-92
2021/09/22 06:33:14;;;;;;;22.87;15.33;;;14.30;67.90;;;;;;4958007;28;20201;-91
2021/09/22 06:35:40;;;;;;;24.10;13.70;;;14.30;68.00;;;;;;4960216;28;20204;-92
2021/09/22 06:38:06;;;;;;;24.30;14.40;;;14.30;67.90;;;;;;4976877;28;20251;-92
2021/09/22 06:40:32;;;;;;;29.05;14.48;;;14.40;67.80;;;;;;4977845;28;20358;-91
2021/09/22 06:42:58;;;;;;;22.50;14.77;;;14.40;67.70;;;;;;4975360;28;20266;-92
2021/09/22 06:45:23;;;;;;;23.57;14.87;;;14.50;67.80;;;;;;4976192;28;20555;-92
2021/09/22 06:47:51;;;;;;;21.30;13.77;;;14.50;67.80;;;;;;4976394;28;20182;-92
2021/09/22 06:50:17;;;;;;;23.67;14.43;;;14.60;67.70;;;;;;4978689;28;20176;-92
2021/09/22 06:52:43;;;;;;;21.52;13.98;;;14.60;67.50;;;;;;4975524;28;20235;-92
2021/09/22 06:55:10;;;;;;;27.55;15.85;;;14.70;67.50;;;;;;4975632;28;20560;-92
2021/09/22 06:57:37;;;;;;;21.38;14.80;;;14.70;67.30;;;;;;4961291;28;20191;-92
2021/09/22 07:00:04;;;;;;;26.88;15.07;;;14.80;67.30;;;;;;4975371;28;20187;-92
2021/09/22 07:02:29;;;;;;;25.40;13.90;;;15.00;66.80;;;;;;4960132;28;20223;-92
2021/09/22 07:04:55;;;;;;;24.50;14.70;;;15.10;66.80;;;;;;4978024;28;20196;-92
2021/09/22 07:07:21;;;;;;;25.17;15.20;;;15.20;66.30;;;;;;4976819;28;20183;-92
2021/09/22 07:09:47;;;;;;;28.83;16.33;;;15.40;65.90;;;;;;4977635;28;20419;-92
2021/09/22 07:12:12;;;;;;;28.53;16.10;;;15.40;65.70;;;;;;4977843;28;20620;-92
2021/09/22 07:14:39;;;;;;;27.07;13.90;;;15.50;65.60;;;;;;4977520;28;20211;-92
2021/09/22 07:17:05;;;;;;;34.20;15.65;;;15.50;65.60;;;;;;4979168;28;20576;-93
2021/09/22 07:19:31;;;;;;;20.37;15.20;;;15.80;64.80;;;;;;4977422;28;20190;-92
2021/09/22 07:21:56;;;;;;;21.10;15.27;;;15.80;64.40;;;;;;4977761;28;20206;-93
2021/09/22 07:24:22;;;;;;;21.87;15.33;;;15.90;64.00;;;;;;4976611;28;20192;-92
2021/09/22 07:26:48;;;;;;;21.67;14.07;;;16.00;63.70;;;;;;4976590;28;20266;-92
2021/09/22 07:29:14;;;;;;;21.87;15.70;;;16.30;63.30;;;;;;4977164;28;20279;-93
2021/09/22 07:31:39;;;;;;;32.80;14.53;;;16.30;62.80;;;;;;4975898;28;20230;-93
2021/09/22 07:34:08;;;;;;;24.60;13.70;;;16.50;62.50;;;;;;4963637;28;20216;-93
2021/09/22 07:36:35;;;;;;;24.40;14.00;;;16.60;62.30;;;;;;4968251;28;20427;-93
2021/09/22 07:39:03;;;;;;;21.33;15.13;;;16.70;61.90;;;;;;4975959;28;20207;-93
2021/09/22 07:41:29;;;;;;;32.72;14.27;;;16.80;61.40;;;;;;4976998;28;20215;-93
2021/09/22 07:43:55;;;;;;;25.50;15.10;;;17.00;61.20;;;;;;4976349;28;20238;-92
2021/09/22 07:46:21;;;;;;;24.30;14.17;;;16.90;61.00;;;;;;4976076;28;20167;-93
2021/09/22 07:48:47;;;;;;;23.70;15.10;;;16.80;60.80;;;;;;4977261;28;20180;-93
2021/09/22 07:51:12;;;;;;;35.63;15.30;;;17.00;60.70;;;;;;4975059;28;20184;-92
2021/09/22 07:53:38;;;;;;;34.70;16.33;;;17.00;61.00;;;;;;4976175;28;20506;-93
2021/09/22 07:56:04;;;;;;;47.40;16.60;;;17.10;61.00;;;;;;4974610;28;20180;-93
2021/09/22 07:58:30;;;;;;;54.65;18.17;;;17.20;61.00;;;;;;4975714;28;20206;-93
2021/09/22 08:00:56;;;;;;;38.43;17.27;;;17.20;61.40;;;;;;4977269;28;20620;-93
2021/09/22 08:03:22;;;;;;;29.73;15.10;;;17.30;61.40;;;;;;4979503;28;20626;-93
2021/09/22 08:05:48;;;;;;;35.87;17.47;;;17.30;61.40;;;;;;4979771;28;20195;-92
2021/09/22 08:08:14;;;;;;;28.80;15.40;;;17.40;61.10;;;;;;4978584;28;20521;-92
2021/09/22 08:10:39;;;;;;;29.37;15.07;;;17.40;60.40;;;;;;4977945;28;20194;-92
2021/09/22 08:13:05;;;;;;;31.73;16.20;;;17.40;60.10;;;;;;4979655;28;20832;-92
2021/09/22 08:15:31;;;;;;;29.60;13.10;;;17.20;60.50;;;;;;4978919;28;20427;-92
2021/09/22 08:17:57;;;;;;;22.87;13.40;;;17.30;60.70;;;;;;4976290;28;20831;-90
2021/09/22 08:20:23;;;;;;;16.15;12.13;;;17.50;61.00;;;;;;4975289;28;20828;-89
2021/09/22 08:22:49;;;;;;;19.20;11.43;;;17.40;59.20;;;;;;4958641;28;20204;-90
2021/09/22 08:25:15;;;;;;;16.00;10.60;;;17.40;57.90;;;;;;4975650;28;20234;-90
2021/09/22 08:27:42;;;;;;;15.27;9.95;;;17.50;56.70;;;;;;4977143;28;20553;-90
2021/09/22 08:30:08;;;;;;;16.17;11.38;;;17.50;55.40;;;;;;4976135;28;20207;-90
2021/09/22 08:32:34;;;;;;;22.23;12.18;;;17.60;54.90;;;;;;4975783;28;20207;-90
2021/09/22 08:35:01;;;;;;;19.50;12.43;;;17.80;55.20;;;;;;4976427;28;20187;-90
2021/09/22 08:37:27;;;;;;;22.73;12.25;;;18.10;56.50;;;;;;4982201;28;20180;-90
2021/09/22 08:39:53;;;;;;;24.38;12.35;;;18.20;56.50;;;;;;4984009;28;20204;-89
2021/09/22 08:42:19;;;;;;;21.65;12.57;;;17.90;56.20;;;;;;4975015;28;20219;-90
2021/09/22 08:44:45;;;;;;;20.27;12.80;;;17.90;56.50;;;;;;4976071;28;20206;-90
2021/09/22 08:47:13;;;;;;;17.15;11.88;;;17.90;56.10;;;;;;4977182;28;20223;-90
2021/09/22 08:49:40;;;;;;;21.27;10.75;;;17.90;54.80;;;;;;4975777;28;20277;-89
2021/09/22 08:52:06;;;;;;;15.95;10.05;;;18.10;54.60;;;;;;4976670;28;20203;-90
2021/09/22 08:54:32;;;;;;;18.23;9.70;;;18.20;54.20;;;;;;4975316;28;20267;-90
2021/09/22 08:57:00;;;;;;;14.90;9.77;;;18.40;54.00;;;;;;4976234;28;20415;-90
2021/09/22 08:59:27;;;;;;;16.02;9.45;;;18.50;53.10;;;;;;4975533;28;20431;-90
2021/09/22 09:02:13;;;;;;;14.27;10.40;;;18.50;51.90;;;;;;4975386;28;20200;-90
2021/09/22 09:04:41;;;;;;;14.73;9.95;;;18.30;51.90;;;;;;4974922;28;20251;-90
2021/09/22 09:07:07;;;;;;;13.52;9.73;;;18.20;52.00;;;;;;4973963;28;20180;-90
2021/09/22 09:09:44;;;;;;;14.00;10.02;;;18.10;52.00;;;;;;4975964;28;20204;-90
2021/09/22 09:12:22;;;;;;;12.52;8.90;;;18.00;52.30;;;;;;4958609;28;20323;-89
2021/09/22 09:14:57;;;;;;;21.38;11.75;;;18.20;52.40;;;;;;4958537;28;20547;-90
2021/09/22 09:17:50;;;;;;;15.35;10.60;;;18.60;52.00;;;;;;4957715;28;20180;-90
2021/09/22 09:20:24;;;;;;;21.85;9.07;;;18.70;52.00;;;;;;4956699;29;20196;-91
2021/09/22 09:23:02;;;;;;;14.75;8.90;;;18.80;52.10;;;;;;4957919;28;20201;-90
2021/09/22 09:25:31;;;;;;;11.80;8.30;;;18.90;52.10;;;;;;4957631;28;20179;-90
2021/09/22 09:27:57;;;;;;;18.73;7.85;;;19.00;51.90;;;;;;4957824;28;20530;-90
2021/09/22 09:30:26;;;;;;;13.15;9.57;;;19.10;51.70;;;;;;4957251;28;20181;-90
2021/09/22 09:32:52;;;;;;;13.27;9.60;;;19.30;50.50;;;;;;4956942;28;20224;-90
2021/09/22 09:35:23;;;;;;;15.65;9.55;;;19.50;50.00;;;;;;4958839;28;20267;-90
2021/09/22 09:37:55;;;;;;;11.15;8.10;;;19.50;50.00;;;;;;4957973;28;20531;-90
2021/09/22 09:40:33;;;;;;;17.60;8.68;;;19.50;50.40;;;;;;4941884;29;20187;-90
2021/09/22 09:43:08;;;;;;;17.60;9.82;;;19.50;50.70;;;;;;4958837;28;20229;-90
2021/09/22 09:45:41;;;;;;;14.57;8.50;;;19.40;50.90;;;;;;4958524;28;20532;-90
2021/09/22 09:48:09;;;;;;;9.80;8.27;;;19.50;51.10;;;;;;4958558;28;20188;-90
2021/09/22 09:50:50;;;;;;;16.50;9.43;;;19.40;49.20;;;;;;4957396;28;20275;-91
2021/09/22 09:53:26;;;;;;;12.35;8.70;;;19.10;49.60;;;;;;4959959;28;20755;-91
2021/09/22 09:55:53;;;;;;;17.40;10.15;;;18.90;49.90;;;;;;4957688;28;20176;-91
2021/09/22 09:58:23;;;;;;;16.85;10.23;;;18.90;50.60;;;;;;4957793;28;20231;-91
2021/09/22 10:00:57;;;;;;;13.00;9.43;;;19.00;50.80;;;;;;4957268;29;20212;-92
2021/09/22 10:03:23;;;;;;;19.27;9.68;;;19.00;50.70;;;;;;4958829;28;20624;-91
2021/09/22 10:05:51;;;;;;;13.15;8.75;;;19.20;50.90;;;;;;4959646;28;20259;-91
2021/09/22 10:08:21;;;;;;;23.05;10.80;;;19.50;50.70;;;;;;4957484;28;20317;-91
2021/09/22 10:10:50;;;;;;;20.60;10.65;;;19.50;50.20;;;;;;4958396;28;20193;-91
2021/09/22 10:13:19;;;;;;;18.17;9.88;;;19.70;50.20;;;;;;4956729;28;20224;-89
2021/09/22 10:15:46;;;;;;;13.50;9.10;;;19.80;50.20;;;;;;4947093;28;20248;-89
2021/09/22 10:18:14;;;;;;;12.88;8.52;;;19.40;48.40;;;;;;4958686;28;20184;-90
2021/09/22 10:20:42;;;;;;;13.32;8.63;;;19.40;48.90;;;;;;4959290;28;20200;-89
2021/09/22 10:23:09;;;;;;;20.65;9.23;;;19.60;48.80;;;;;;4957647;28;20262;-91
2021/09/22 10:25:35;;;;;;;17.27;9.70;;;19.70;48.70;;;;;;4958723;28;20184;-90
2021/09/22 10:28:02;;;;;;;14.57;9.27;;;19.90;48.90;;;;;;4958100;28;20240;-90
2021/09/22 10:30:41;;;;;;;19.98;10.50;;;20.20;48.60;;;;;;4943868;29;20184;-91
2021/09/22 10:33:23;;;;;;;15.60;11.18;;;20.20;47.80;;;;;;4942539;29;20196;-91
2021/09/22 10:35:58;;;;;;;24.17;10.90;;;20.30;47.90;;;;;;4967526;28;20687;-91
2021/09/22 10:38:27;;;;;;;18.67;10.80;;;20.40;47.70;;;;;;4979341;28;20176;-91
2021/09/22 10:40:53;;;;;;;20.85;9.80;;;20.60;47.30;;;;;;4980429;28;20214;-89
2021/09/22 10:43:21;;;;;;;13.25;10.35;;;20.60;45.50;;;;;;4979749;28;20204;-90
2021/09/22 10:46:11;;;;;;;12.38;10.05;;;20.70;46.10;;;;;;4979696;28;20196;-90
2021/09/22 10:48:41;;;;;;;15.95;9.65;;;20.70;44.40;;;;;;4982607;28;20176;-91
2021/09/22 10:51:11;;;;;;;11.40;8.15;;;20.50;44.30;;;;;;4982397;28;20220;-90
2021/09/22 10:53:39;;;;;;;10.73;7.88;;;20.40;45.00;;;;;;4978716;28;20671;-90
2021/09/22 10:56:13;;;;;;;13.60;7.43;;;20.30;43.50;;;;;;4981544;28;20184;-91
2021/09/22 10:58:55;;;;;;;11.63;7.40;;;20.50;43.80;;;;;;4978696;28;20715;-91
2021/09/22 11:01:33;;;;;;;13.98;6.00;;;20.70;44.30;;;;;;4980382;28;20671;-91
2021/09/22 11:04:19;;;;;;;11.97;7.47;;;20.90;44.20;;;;;;4979734;28;20196;-92
2021/09/22 11:09:33;;;;;;;8.53;5.73;;;21.10;44.50;;;;;;4960009;29;20904;-92
2021/09/22 11:11:59;;;;;;;12.17;7.23;;;21.20;43.30;;;;;;4976652;28;20180;-92
2021/09/22 11:14:29;;;;;;;11.27;7.17;;;21.30;43.30;;;;;;4963045;28;20446;-92
2021/09/22 11:17:13;;;;;;;13.43;7.83;;;21.30;43.60;;;;;;4995101;28;20835;-93
2021/09/22 11:19:41;;;;;;;6.90;5.50;;;21.40;43.80;;;;;;4988838;28;20427;-91
2021/09/22 11:22:19;;;;;;;5.27;4.10;;;21.40;42.30;;;;;;4955137;29;20468;-92
2021/09/22 11:24:46;;;;;;;10.97;5.70;;;21.30;41.30;;;;;;4955223;28;20420;-92
2021/09/22 11:27:14;;;;;;;7.90;5.43;;;21.30;42.20;;;;;;4955475;28;20424;-92
2021/09/22 11:29:42;;;;;;;9.43;6.23;;;21.40;41.90;;;;;;4954334;28;21023;-93
2021/09/22 11:32:27;;;;;;;10.67;6.20;;;21.40;42.00;;;;;;4941468;29;20472;-91
2021/09/22 11:34:55;;;;;;;15.13;7.17;;;21.40;41.30;;;;;;4941249;29;20474;-92
2021/09/22 11:37:21;;;;;;;11.77;6.60;;;20.70;41.40;;;;;;4953008;28;20440;-93
2021/09/22 11:39:47;;;;;;;6.68;5.72;;;20.60;42.00;;;;;;4954331;28;20420;-92
2021/09/22 11:42:15;;;;;;;8.77;7.30;;;20.50;41.80;;;;;;4954203;28;20296;-93
2021/09/22 11:44:42;;;;;;;9.15;5.88;;;20.60;42.40;;;;;;4955224;28;20468;-92
2021/09/22 11:47:09;;;;;;;21.80;8.13;;;20.60;42.30;;;;;;4954035;28;20181;-92
2021/09/22 11:49:41;;;;;;;13.27;8.65;;;20.70;42.40;;;;;;4954449;28;20181;-92
2021/09/22 11:52:17;;;;;;;13.20;7.10;;;20.40;43.20;;;;;;4936699;29;20197;-92
2021/09/22 11:54:48;;;;;;;11.40;7.30;;;20.60;43.90;;;;;;4937352;29;20236;-92
2021/09/22 11:57:17;;;;;;;14.32;8.52;;;20.70;43.40;;;;;;4949437;28;20423;-93
2021/09/22 11:59:45;;;;;;;11.45;6.80;;;20.70;43.50;;;;;;4974931;28;20184;-92
2021/09/22 12:02:15;;;;;;;11.90;7.70;;;21.00;43.80;;;;;;4975451;28;20739;-92
2021/09/22 12:04:46;;;;;;;9.93;6.50;;;21.00;43.60;;;;;;4960985;28;20237;-92
2021/09/22 12:07:14;;;;;;;10.57;5.93;;;21.10;44.20;;;;;;4977517;28;20172;-92
2021/09/22 12:09:44;;;;;;;7.83;5.23;;;20.80;43.20;;;;;;4978977;28;20184;-92
2021/09/22 12:12:18;;;;;;;9.07;6.30;;;20.80;42.90;;;;;;4977805;28;20475;-92
2021/09/22 12:14:55;;;;;;;12.98;6.22;;;20.90;43.50;;;;;;4977393;28;20183;-92
2021/09/22 12:17:34;;;;;;;9.00;6.40;;;21.20;44.10;;;;;;4977714;28;20203;-91
2021/09/22 12:20:02;;;;;;;10.07;7.33;;;21.30;44.00;;;;;;4958248;29;20423;-92
2021/09/22 12:22:31;;;;;;;11.53;6.83;;;21.30;43.20;;;;;;4959221;28;20515;-92
2021/09/22 12:24:58;;;;;;;14.50;7.20;;;21.10;44.20;;;;;;4957940;28;20416;-92
2021/09/22 12:27:25;;;;;;;10.18;6.93;;;21.10;43.60;;;;;;4958567;28;20449;-92
2021/09/22 12:29:58;;;;;;;16.65;8.07;;;21.00;43.40;;;;;;4958005;28;20185;-91
2021/09/22 12:32:26;;;;;;;10.00;7.13;;;20.80;44.10;;;;;;4957365;28;20224;-92
2021/09/22 12:34:51;;;;;;;11.73;7.50;;;20.80;44.60;;;;;;4959641;28;20556;-89
2021/09/22 12:37:20;;;;;;;12.70;7.10;;;21.00;44.40;;;;;;4960384;28;20202;-90
2021/09/22 12:40:12;;;;;;;13.93;7.80;;;21.30;44.30;;;;;;4962164;28;20595;-93
2021/09/22 12:42:47;;;;;;;13.20;6.20;;;21.40;43.90;;;;;;4965473;28;20464;-91